Aqua Jewel — SZLD — position and weather

sailwx.info

Track history (hours):
 
Tides and Currents Weather Stations Pressure Air Temp Water Temp Dewpoint Dewpoint Depression Visibility Wind Speed Wind Dir Waves Ship Positions

Aqua Jewel

Last reported at 2018-May-23 15:00 UTC. Time now 2018-May-23 15:11 UTC.
Position N 38°54' W 027°27'.

Length 108 m; draft 3.8 m.

Type: Passenger vessel. MMSI: 239981000.

Date/timePositionNaut miles runAvg speedWind from/ knotsBaromVisibWave heightAir tempDewpointWater temp
2018-May-23 15:00N 38°54' W 027°27'714.5
2018-May-23 14:30N 38°56' W 027°36'714.5
2018-May-23 14:00N 38°59' W 027°45'714.9
2018-May-23 13:30N 39°02' W 027°54'4 7.4
2018-May-23 13:00N 39°03' W 027°58'1 2.3
2018-May-23 12:30N 39°02' W 027°57'713.6
2018-May-23 12:00N 38°56' W 027°59'714.6
2018-May-23 11:30N 38°52' W 028°07'815.1
2018-May-23 11:00N 38°48' W 028°15'510.3
2018-May-23 10:31N 38°44' W 028°19'611.8
2018-May-23 10:00N 38°41' W 028°12'1 2.1
2018-May-23 09:30N 38°40' W 028°13'612.8
2018-May-23 09:00N 38°35' W 028°18'3 6.3
2018-May-23 08:30N 38°32' W 028°19'1 2.6
2018-May-23 08:00N 38°33' W 028°20'714.6
2018-May-23 07:30N 38°35' W 028°29'713.1
2018-May-23 07:00N 38°32' W 028°37'0 0.0
2018-May-23 06:29N 38°32' W 028°37'0 0.0
2018-May-23 05:59N 38°32' W 028°37'0 0.0
2018-May-23 05:26N 38°32' W 028°37'0 0.0
2018-May-23 04:56N 38°32' W 028°37'0 0.0
2018-May-23 04:29N 38°32' W 028°37'0 0.0
2018-May-23 03:59N 38°32' W 028°37'0 0.0
2018-May-23 03:29N 38°32' W 028°37'0 0.0
2018-May-23 02:59N 38°32' W 028°37'0 0.0
2018-May-23 02:29N 38°32' W 028°37'0 0.0
2018-May-23 01:59N 38°32' W 028°37'0 0.0
2018-May-23 01:29N 38°32' W 028°37'0 0.0
2018-May-23 00:56N 38°32' W 028°37'0 0.0
2018-May-23 00:29N 38°32' W 028°37'0 0.0
2018-May-22 23:59N 38°32' W 028°37'0 0.0
2018-May-22 23:29N 38°32' W 028°37'0 0.0
2018-May-22 22:59N 38°32' W 028°37'0 0.0
2018-May-22 22:26N 38°32' W 028°37'0 0.0
2018-May-22 21:59N 38°32' W 028°37'0 0.0
2018-May-22 21:30N 38°32' W 028°37'510.7
2018-May-22 21:00N 38°34' W 028°31'714.1
2018-May-22 20:30N 38°34' W 028°22'3 5.8
2018-May-22 20:00N 38°32' W 028°19'3 5.9
2018-May-22 19:30N 38°35' W 028°18'715.0
2018-May-22 19:00N 38°41' W 028°12'0 0.2
2018-May-22 18:30N 38°41' W 028°12'0 0.0
2018-May-22 18:00N 38°41' W 028°12'0 0.0
2018-May-22 17:30N 38°41' W 028°12'0 0.0
2018-May-22 17:00N 38°41' W 028°12'0 0.2
2018-May-22 16:30N 38°41' W 028°12'713.5
2018-May-22 16:01N 38°35' W 028°17'4 7.7
2018-May-22 15:30N 38°32' W 028°19'3 5.0
2018-May-22 15:00N 38°34' W 028°22'714.6
2018-May-22 14:31N 38°36' W 028°31'612.2
2018-May-22 14:00N 38°32' W 028°37'0 0.0
2018-May-22 13:30N 38°32' W 028°37'0 0.0
2018-May-22 13:00N 38°32' W 028°37'0 0.0
2018-May-22 12:30N 38°32' W 028°37'0 0.0
2018-May-22 12:00N 38°32' W 028°37'0 0.0
2018-May-22 11:30N 38°32' W 028°37'0 0.0
2018-May-22 11:00N 38°32' W 028°37'0 0.0
2018-May-22 10:27N 38°32' W 028°37'0 0.0
2018-May-22 09:51N 38°32' W 028°37'0 0.0
2018-May-22 09:27N 38°32' W 028°37'0 0.0
2018-May-22 09:00N 38°32' W 028°37'0 0.0
2018-May-22 08:30N 38°32' W 028°37'0 0.0
2018-May-22 08:00N 38°32' W 028°37'0 0.0
2018-May-22 07:30N 38°32' W 028°37'0 0.0
2018-May-22 07:00N 38°32' W 028°37'0 0.0
2018-May-22 06:30N 38°32' W 028°37'0 0.0
2018-May-22 06:00N 38°32' W 028°37'0 0.0
2018-May-22 05:30N 38°32' W 028°37'0 0.0
2018-May-22 05:00N 38°32' W 028°37'0 0.0
2018-May-22 04:30N 38°32' W 028°37'0 0.0
2018-May-22 04:00N 38°32' W 028°37'0 0.0
2018-May-22 03:30N 38°32' W 028°37'0 0.0
2018-May-22 03:00N 38°32' W 028°37'0 0.0
2018-May-22 02:30N 38°32' W 028°37'0 0.0
2018-May-22 02:00N 38°32' W 028°37'0 0.0
2018-May-22 01:30N 38°32' W 028°37'0 0.0
2018-May-22 01:00N 38°32' W 028°37'0 0.0
2018-May-22 00:30N 38°32' W 028°37'0 0.0
2018-May-22 00:00N 38°32' W 028°37'0 0.0
2018-May-21 23:30N 38°32' W 028°37'0 0.0
2018-May-21 23:00N 38°32' W 028°37'0 0.0
2018-May-21 22:30N 38°32' W 028°37'0 0.0
2018-May-21 22:00N 38°32' W 028°37'0 0.0
2018-May-21 21:30N 38°32' W 028°37'0 0.0
2018-May-21 21:00N 38°32' W 028°37'0 0.0
2018-May-21 20:30N 38°32' W 028°37'0 0.0
2018-May-21 20:00N 38°32' W 028°37'0 0.0
2018-May-21 19:30N 38°32' W 028°37'0 0.0
2018-May-21 19:00N 38°32' W 028°37'0 0.0
2018-May-21 18:30N 38°32' W 028°37'0 0.0
2018-May-21 18:00N 38°32' W 028°37'0 0.0
2018-May-21 17:30N 38°32' W 028°37'0 0.0
2018-May-21 17:00N 38°32' W 028°37'0 0.0
2018-May-21 16:30N 38°32' W 028°37'0 0.0
2018-May-21 16:00N 38°32' W 028°37'0 0.0
2018-May-21 15:30N 38°32' W 028°37'0 0.0
2018-May-21 15:00N 38°32' W 028°37'0 0.0
2018-May-21 14:30N 38°32' W 028°37'0 0.0
2018-May-21 14:00N 38°32' W 028°37'0 0.0
2018-May-21 13:30N 38°32' W 028°37'0 0.0
2018-May-21 13:00N 38°32' W 028°37'0 0.0
2018-May-21 12:30N 38°32' W 028°37'0 0.0
2018-May-21 11:57N 38°32' W 028°37'0 0.0
2018-May-21 11:30N 38°32' W 028°37'0 0.0
2018-May-21 11:00N 38°32' W 028°37'0 0.0
2018-May-21 10:30N 38°32' W 028°37'0 0.0
2018-May-21 10:00N 38°32' W 028°37'0 0.0
2018-May-21 09:30N 38°32' W 028°37'0 0.0
2018-May-21 09:00N 38°32' W 028°37'0 0.0
2018-May-21 08:30N 38°32' W 028°37'0 0.0
2018-May-21 08:00N 38°32' W 028°37'0 0.0
2018-May-21 07:30N 38°32' W 028°37'0 0.0
2018-May-21 07:00N 38°32' W 028°37'0 0.0
2018-May-21 06:27N 38°32' W 028°37'0 0.0
2018-May-21 06:00N 38°32' W 028°37'0 0.0
2018-May-21 05:30N 38°32' W 028°37'0 0.0
2018-May-21 05:00N 38°32' W 028°37'0 0.0
2018-May-21 04:30N 38°32' W 028°37'0 0.0
2018-May-21 04:00N 38°32' W 028°37'0 0.0
2018-May-21 03:30N 38°32' W 028°37'0 0.0
2018-May-21 03:00N 38°32' W 028°37'0 0.0
2018-May-21 02:30N 38°32' W 028°37'0 0.0
2018-May-21 02:00N 38°32' W 028°37'3 6.4
2018-May-21 01:30N 38°33' W 028°34'713.5
2018-May-21 01:01N 38°35' W 028°25'510.7
2018-May-21 00:30N 38°32' W 028°19'3 6.1
2018-May-21 00:00N 38°35' W 028°18'714.0
2018-May-20 23:31N 38°40' W 028°12'1 1.2
2018-May-20 23:00N 38°40' W 028°12'714.6
2018-May-20 22:30N 38°36' W 028°04'714.9
2018-May-20 22:00N 38°32' W 027°56'815.4
2018-May-20 21:30N 38°29' W 027°47'713.4
2018-May-20 21:00N 38°30' W 027°38'815.2
2018-May-20 20:30N 38°36' W 027°32'612.7
2018-May-20 20:00N 38°38' W 027°24'714.1
2018-May-20 19:30N 38°38' W 027°15'815.1
2018-May-20 18:56N 38°38' W 027°04'511.8
2018-May-20 18:31N 38°43' W 027°03'0 0.8
2018-May-20 18:00N 38°43' W 027°03'0 0.1
2018-May-20 17:30N 38°43' W 027°03'3 5.1
2018-May-20 17:01N 38°45' W 027°02'713.7
2018-May-20 16:30N 38°49' W 027°10'714.0
2018-May-20 16:00N 38°51' W 027°18'713.9
2018-May-20 15:30N 38°54' W 027°26'713.3
2018-May-20 15:00N 38°56' W 027°35'713.5
2018-May-20 14:30N 38°58' W 027°43'713.6
2018-May-20 14:00N 39°01' W 027°51'612.2
2018-May-20 13:31N 39°03' W 027°58'1 1.2
2018-May-20 13:00N 39°03' W 027°57'510.6
2018-May-20 12:30N 38°58' W 028°01'714.0
2018-May-20 12:00N 38°56' W 028°10'713.2
2018-May-20 11:30N 38°51' W 028°15'713.5
2018-May-20 11:00N 38°46' W 028°20'713.9
2018-May-20 10:30N 38°41' W 028°14'2 3.7
2018-May-20 10:00N 38°41' W 028°12'714.5
2018-May-20 09:30N 38°35' W 028°17'3 6.3
2018-May-20 09:00N 38°32' W 028°19'510.6
2018-May-20 08:30N 38°34' W 028°25'714.5
2018-May-20 08:00N 38°33' W 028°34'2 4.7
2018-May-20 07:30N 38°32' W 028°37'0 0.0
2018-May-20 07:00N 38°32' W 028°37'0 0.0
2018-May-20 06:30N 38°32' W 028°37'0 0.0
2018-May-20 05:58N 38°32' W 028°37'0 0.0
2018-May-20 05:28N 38°32' W 028°37'0 0.0
2018-May-20 04:58N 38°32' W 028°37'0 0.0
2018-May-20 04:28N 38°32' W 028°37'0 0.0
2018-May-20 03:58N 38°32' W 028°37'0 0.0
2018-May-20 03:28N 38°32' W 028°37'0 0.0
2018-May-20 02:55N 38°32' W 028°37'0 0.0
2018-May-20 02:28N 38°32' W 028°37'0 0.0
2018-May-20 01:58N 38°32' W 028°37'0 0.0
2018-May-20 01:28N 38°32' W 028°37'0 0.0
2018-May-20 00:58N 38°32' W 028°37'0 0.0
2018-May-20 00:28N 38°32' W 028°37'0 0.0
2018-May-19 23:58N 38°32' W 028°37'0 0.0
2018-May-19 23:28N 38°32' W 028°37'0 0.0
2018-May-19 22:58N 38°32' W 028°37'0 0.0
2018-May-19 22:28N 38°32' W 028°37'0 0.0
2018-May-19 21:58N 38°32' W 028°37'0 0.0
2018-May-19 21:28N 38°32' W 028°37'0 0.0
2018-May-19 20:58N 38°32' W 028°37'0 0.0
2018-May-19 20:28N 38°32' W 028°37'0 0.0
2018-May-19 19:58N 38°32' W 028°37'0 0.0
2018-May-19 19:28N 38°32' W 028°37'0 0.0
2018-May-19 18:58N 38°32' W 028°37'0 0.0
2018-May-19 18:28N 38°32' W 028°37'0 0.0
2018-May-19 17:58N 38°32' W 028°37'0 0.0
2018-May-19 17:28N 38°32' W 028°37'0 0.0
2018-May-19 16:58N 38°32' W 028°37'0 0.0
2018-May-19 16:28N 38°32' W 028°37'0 0.0
2018-May-19 15:58N 38°32' W 028°37'0 0.0
2018-May-19 15:28N 38°32' W 028°37'0 0.0
2018-May-19 14:58N 38°32' W 028°37'0 0.0
2018-May-19 14:28N 38°32' W 028°37'0 0.0
2018-May-19 13:58N 38°32' W 028°37'0 0.0
2018-May-19 13:25N 38°32' W 028°37'0 0.0
2018-May-19 12:58N 38°32' W 028°37'0 0.0
2018-May-19 12:28N 38°32' W 028°37'0 0.0
2018-May-19 11:58N 38°32' W 028°37'0 0.0
2018-May-19 11:28N 38°32' W 028°37'0 0.0
2018-May-19 10:58N 38°32' W 028°37'0 0.0
2018-May-19 10:28N 38°32' W 028°37'0 0.0
2018-May-19 09:58N 38°32' W 028°37'0 0.0
2018-May-19 09:25N 38°32' W 028°37'0 0.0
2018-May-19 08:58N 38°32' W 028°37'0 0.0
2018-May-19 08:28N 38°32' W 028°37'0 0.0
2018-May-19 07:58N 38°32' W 028°37'0 0.0
2018-May-19 07:28N 38°32' W 028°37'0 0.0
2018-May-19 06:58N 38°32' W 028°37'0 0.0
2018-May-19 06:28N 38°32' W 028°37'0 0.0
2018-May-19 05:58N 38°32' W 028°37'0 0.0
2018-May-19 05:28N 38°32' W 028°37'0 0.0
2018-May-19 04:58N 38°32' W 028°37'0 0.0
2018-May-19 04:28N 38°32' W 028°37'0 0.0
2018-May-19 03:58N 38°32' W 028°37'0 0.0
2018-May-19 03:28N 38°32' W 028°37'0 0.0
2018-May-19 02:58N 38°32' W 028°37'0 0.0
2018-May-19 02:28N 38°32' W 028°37'0 0.0
2018-May-19 01:58N 38°32' W 028°37'0 0.0
2018-May-19 01:28N 38°32' W 028°37'0 0.0
2018-May-19 00:58N 38°32' W 028°37'0 0.0
2018-May-19 00:28N 38°32' W 028°37'0 0.0
2018-May-18 23:58N 38°32' W 028°37'0 0.0
2018-May-18 23:28N 38°32' W 028°37'0 0.0
2018-May-18 22:58N 38°32' W 028°37'0 0.0
2018-May-18 22:28N 38°32' W 028°37'0 0.0
2018-May-18 21:58N 38°32' W 028°37'0 0.0
2018-May-18 21:28N 38°32' W 028°37'0 0.0
2018-May-18 20:58N 38°32' W 028°37'0 0.0
2018-May-18 20:28N 38°32' W 028°37'0 0.0
2018-May-18 19:58N 38°32' W 028°37'0 0.0
2018-May-18 19:28N 38°32' W 028°37'0 0.0
2018-May-18 18:58N 38°32' W 028°37'0 0.0
2018-May-18 18:28N 38°32' W 028°37'0 0.0
2018-May-18 17:55N 38°32' W 028°37'0 0.0
2018-May-18 17:28N 38°32' W 028°37'0 0.0
2018-May-18 17:00N 38°32' W 028°37'3 6.1
2018-May-18 16:30N 38°33' W 028°33'611.7
2018-May-18 16:00N 38°34' W 028°26'612.3
2018-May-18 15:30N 38°32' W 028°19'0 0.1
2018-May-18 15:00N 38°32' W 028°19'712.9
2018-May-18 14:30N 38°37' W 028°14'4 7.9
2018-May-18 14:00N 38°41' W 028°12'0 0.4
2018-May-18 13:30N 38°41' W 028°12'612.7
2018-May-18 13:01N 38°44' W 028°19'510.7
2018-May-18 12:30N 38°49' W 028°16'714.8
2018-May-18 12:00N 38°53' W 028°08'714.7
2018-May-18 11:31N 38°58' W 028°01'611.4
2018-May-18 11:00N 39°03' W 027°58'2 3.1
2018-May-18 10:30N 39°02' W 027°56'714.9
2018-May-18 10:00N 38°60' W 027°47'815.1
2018-May-18 09:30N 38°57' W 027°38'815.2
2018-May-18 09:01N 38°55' W 027°29'714.9
2018-May-18 08:30N 38°52' W 027°20'714.9
2018-May-18 08:00N 38°50' W 027°11'714.4
2018-May-18 07:30N 38°46' W 027°03'3 6.1
2018-May-18 07:00N 38°43' W 027°03'2 3.9
2018-May-18 06:30N 38°42' W 027°01'714.9
2018-May-18 06:01N 38°37' W 026°54'714.2
2018-May-18 05:29N 38°32' W 026°47'714.6
2018-May-18 05:00N 38°27' W 026°41'714.9
2018-May-18 04:30N 38°22' W 026°34'815.0
2018-May-18 04:00N 38°17' W 026°27'714.7
2018-May-18 03:30N 38°12' W 026°20'714.4
2018-May-18 03:00N 38°06' W 026°14'815.1
2018-May-18 02:30N 38°01' W 026°07'715.0
2018-May-18 02:00N 37°56' W 026°01'815.8
2018-May-18 01:30N 37°50' W 025°53'815.6
2018-May-18 01:01N 37°45' W 025°46'5 9.6
2018-May-18 00:31N 37°44' W 025°40'0 0.1
2018-May-18 00:01N 37°44' W 025°40'2 4.3
2018-May-17 23:31N 37°43' W 025°38'815.1
2018-May-17 23:01N 37°36' W 025°33'815.2
2018-May-17 22:30N 37°30' W 025°28'815.6
2018-May-17 22:01N 37°22' W 025°25'815.3
2018-May-17 21:30N 37°15' W 025°21'715.0
2018-May-17 21:00N 37°08' W 025°18'714.9
2018-May-17 20:31N 37°01' W 025°14'713.3
2018-May-17 20:00N 36°56' W 025°09'0 0.7
2018-May-17 19:28N 36°57' W 025°09'0 0.0
2018-May-17 18:58N 36°57' W 025°09'0 0.0
2018-May-17 18:29N 36°57' W 025°09'0 0.0
2018-May-17 17:58N 36°57' W 025°09'0 0.0
2018-May-17 17:28N 36°57' W 025°09'0 0.0
2018-May-17 16:59N 36°57' W 025°09'0 0.0
2018-May-17 16:28N 36°57' W 025°09'0 0.0
2018-May-17 15:58N 36°57' W 025°09'0 0.0
2018-May-17 15:25N 36°57' W 025°09'0 0.0
2018-May-17 14:58N 36°57' W 025°09'0 0.0
2018-May-17 14:28N 36°57' W 025°09'0 0.0
2018-May-17 13:59N 36°57' W 025°09'0 0.0
2018-May-17 13:28N 36°57' W 025°09'0 0.0
2018-May-17 12:58N 36°57' W 025°09'0 0.0
2018-May-17 12:28N 36°57' W 025°09'0 0.0
2018-May-17 11:59N 36°57' W 025°09'0 0.0
2018-May-17 11:30N 36°57' W 025°09'3 5.3
2018-May-17 11:00N 36°58' W 025°12'815.4
2018-May-17 10:30N 37°05' W 025°16'815.2
2018-May-17 10:00N 37°12' W 025°20'815.1
2018-May-17 09:31N 37°19' W 025°24'714.8
2018-May-17 09:00N 37°25' W 025°28'714.9
2018-May-17 08:31N 37°32' W 025°32'815.4
2018-May-17 08:01N 37°39' W 025°36'612.0
2018-May-17 07:30N 37°44' W 025°40'0 0.0
2018-May-17 07:00N 37°44' W 025°40'0 0.0
2018-May-17 06:30N 37°44' W 025°40'0 0.0
2018-May-17 05:59N 37°44' W 025°40'0 0.0
2018-May-17 05:29N 37°44' W 025°40'0 0.0
2018-May-17 04:59N 37°44' W 025°40'0 0.0
2018-May-17 04:30N 37°44' W 025°40'0 0.0
2018-May-17 03:59N 37°44' W 025°40'0 0.0
2018-May-17 03:29N 37°44' W 025°40'0 0.0
2018-May-17 02:59N 37°44' W 025°40'0 0.0
2018-May-17 02:30N 37°44' W 025°40'0 0.0
2018-May-17 01:59N 37°44' W 025°40'0 0.0
2018-May-17 01:29N 37°44' W 025°40'0 0.0
2018-May-17 01:00N 37°44' W 025°40'0 0.0
2018-May-17 00:29N 37°44' W 025°40'0 0.0
2018-May-16 23:59N 37°44' W 025°40'0 0.0
2018-May-16 23:31N 37°44' W 025°40'2 3.9
2018-May-16 23:00N 37°44' W 025°42'815.0
2018-May-16 22:30N 37°48' W 025°50'815.2
2018-May-16 22:00N 37°53' W 025°57'714.9
2018-May-16 21:30N 37°59' W 026°04'815.1
2018-May-16 21:00N 38°04' W 026°11'815.5
2018-May-16 20:30N 38°09' W 026°18'815.5
2018-May-16 20:00N 38°15' W 026°25'815.4
2018-May-16 19:30N 38°20' W 026°32'815.3
2018-May-16 19:00N 38°25' W 026°39'815.6
2018-May-16 18:30N 38°31' W 026°46'815.6
2018-May-16 18:00N 38°36' W 026°53'815.3
2018-May-16 17:29N 38°42' W 027°01'2 4.9
2018-May-16 17:00N 38°43' W 027°03'1 2.2
2018-May-16 16:30N 38°44' W 027°03'713.2
2018-May-16 16:00N 38°49' W 027°08'814.8
2018-May-16 15:30N 38°51' W 027°17'714.8
2018-May-16 15:00N 38°54' W 027°26'815.1
2018-May-16 14:30N 38°56' W 027°35'715.0
2018-May-16 14:00N 38°59' W 027°44'815.2
2018-May-16 13:31N 39°02' W 027°53'4 8.3
2018-May-16 13:00N 39°03' W 027°58'0 0.0
2018-May-16 12:30N 39°03' W 027°58'5 9.3
2018-May-16 12:01N 38°59' W 027°58'815.6
2018-May-16 11:30N 38°54' W 028°06'815.3
2018-May-16 11:00N 38°49' W 028°14'713.7
2018-May-16 10:30N 38°44' W 028°20'713.7
2018-May-16 10:00N 38°41' W 028°12'0 0.2
2018-May-16 09:30N 38°41' W 028°12'714.5
2018-May-16 09:00N 38°34' W 028°16'3 6.7
2018-May-16 08:30N 38°32' W 028°19'1 2.4
2018-May-16 08:00N 38°33' W 028°20'815.1
2018-May-16 07:30N 38°35' W 028°29'713.3
2018-May-16 07:00N 38°32' W 028°37'0 0.1
2018-May-16 06:30N 38°32' W 028°37'0 0.0
2018-May-16 05:58N 38°32' W 028°37'0 0.0
2018-May-16 05:25N 38°32' W 028°37'0 0.0
2018-May-16 04:58N 38°32' W 028°37'0 0.0
2018-May-16 04:28N 38°32' W 028°37'0 0.0
2018-May-16 03:58N 38°32' W 028°37'0 0.0
2018-May-16 03:22N 38°32' W 028°37'0 0.0
2018-May-16 02:55N 38°32' W 028°37'0 0.0
2018-May-16 02:28N 38°32' W 028°37'0 0.0
2018-May-16 01:55N 38°32' W 028°37'0 0.0
2018-May-16 01:25N 38°32' W 028°37'0 0.0
2018-May-16 00:58N 38°32' W 028°37'0 0.0
2018-May-16 00:28N 38°32' W 028°37'0 0.0
2018-May-15 23:58N 38°32' W 028°37'0 0.0
2018-May-15 23:28N 38°32' W 028°37'0 0.0
2018-May-15 22:55N 38°32' W 028°37'0 0.0
2018-May-15 22:28N 38°32' W 028°37'0 0.0
2018-May-15 21:58N 38°32' W 028°37'0 0.0
2018-May-15 21:28N 38°32' W 028°37'0 0.0
2018-May-15 20:58N 38°32' W 028°37'0 0.0
2018-May-15 20:28N 38°32' W 028°37'0 0.0
2018-May-15 19:58N 38°32' W 028°37'0 0.0
2018-May-15 19:28N 38°32' W 028°37'0 0.0
2018-May-15 18:58N 38°32' W 028°37'0 0.0
2018-May-15 18:28N 38°32' W 028°37'0 0.0
2018-May-15 17:58N 38°32' W 028°37'0 0.0
2018-May-15 17:25N 38°32' W 028°37'0 0.0
2018-May-15 16:58N 38°32' W 028°37'0 0.0
2018-May-15 16:28N 38°32' W 028°37'0 0.0
2018-May-15 15:58N 38°32' W 028°37'0 0.0
2018-May-15 15:28N 38°32' W 028°37'0 0.0
2018-May-15 14:58N 38°32' W 028°37'0 0.0
2018-May-15 14:28N 38°32' W 028°37'0 0.0
2018-May-15 13:58N 38°32' W 028°37'0 0.0
2018-May-15 13:28N 38°32' W 028°37'0 0.0
2018-May-15 12:58N 38°32' W 028°37'0 0.0
2018-May-15 12:28N 38°32' W 028°37'0 0.0
2018-May-15 11:58N 38°32' W 028°37'0 0.0
2018-May-15 11:28N 38°32' W 028°37'0 0.0
2018-May-15 10:58N 38°32' W 028°37'0 0.0
2018-May-15 10:28N 38°32' W 028°37'0 0.0
2018-May-15 09:58N 38°32' W 028°37'0 0.0
2018-May-15 09:28N 38°32' W 028°37'0 0.0
2018-May-15 08:58N 38°32' W 028°37'0 0.0
2018-May-15 08:28N 38°32' W 028°37'0 0.0
2018-May-15 07:58N 38°32' W 028°37'0 0.0
2018-May-15 07:28N 38°32' W 028°37'0 0.0
2018-May-15 06:58N 38°32' W 028°37'0 0.0
2018-May-15 06:28N 38°32' W 028°37'0 0.0
2018-May-15 05:58N 38°32' W 028°37'0 0.0
2018-May-15 05:28N 38°32' W 028°37'0 0.0
2018-May-15 04:58N 38°32' W 028°37'0 0.0
2018-May-15 04:28N 38°32' W 028°37'0 0.0
2018-May-15 03:58N 38°32' W 028°37'0 0.0
2018-May-15 03:28N 38°32' W 028°37'0 0.0
2018-May-15 02:58N 38°32' W 028°37'0 0.0
2018-May-15 02:28N 38°32' W 028°37'0 0.0
2018-May-15 01:58N 38°32' W 028°37'0 0.0
2018-May-15 01:28N 38°32' W 028°37'0 0.0
2018-May-15 00:58N 38°32' W 028°37'0 0.0
2018-May-15 00:28N 38°32' W 028°37'0 0.0
2018-May-14 23:58N 38°32' W 028°37'0 0.0
2018-May-14 23:28N 38°32' W 028°37'0 0.0
2018-May-14 22:58N 38°32' W 028°37'0 0.0
2018-May-14 22:28N 38°32' W 028°37'0 0.0
2018-May-14 21:52N 38°32' W 028°37'0 0.0
2018-May-14 21:28N 38°32' W 028°37'0 0.0
2018-May-14 21:00N 38°32' W 028°37'0 0.0
2018-May-14 20:30N 38°32' W 028°37'0 0.0
2018-May-14 20:00N 38°32' W 028°37'0 0.0
2018-May-14 19:30N 38°32' W 028°37'0 0.0
2018-May-14 19:00N 38°32' W 028°37'0 0.0
2018-May-14 18:27N 38°32' W 028°37'0 0.0
2018-May-14 18:00N 38°32' W 028°37'0 0.0
2018-May-14 17:27N 38°32' W 028°37'0 0.0
2018-May-14 17:00N 38°32' W 028°37'5 9.5
2018-May-14 16:30N 38°34' W 028°32'714.4
2018-May-14 16:00N 38°34' W 028°22'3 6.3
2018-May-14 15:30N 38°32' W 028°19'4 7.3
2018-May-14 15:00N 38°35' W 028°17'713.5
2018-May-14 14:30N 38°41' W 028°12'2 4.6
2018-May-14 14:00N 38°41' W 028°15'713.5
2018-May-14 13:30N 38°47' W 028°20'815.1
2018-May-14 13:00N 38°51' W 028°12'815.0
2018-May-14 12:30N 38°56' W 028°04'814.9
2018-May-14 12:00N 39°00' W 027°57'3 5.8
2018-May-14 11:30N 39°03' W 027°58'611.6
2018-May-14 11:00N 39°01' W 027°51'815.5
2018-May-14 10:30N 38°58' W 027°42'815.7
2018-May-14 10:00N 38°56' W 027°32'816.1
2018-May-14 09:30N 38°53' W 027°23'815.6
2018-May-14 09:00N 38°50' W 027°13'815.4
2018-May-14 08:29N 38°47' W 027°04'5 9.9
2018-May-14 08:00N 38°43' W 027°03'0 0.7
2018-May-14 07:30N 38°43' W 027°03'713.8
2018-May-14 07:00N 38°39' W 026°56'815.2
2018-May-14 06:30N 38°34' W 026°49'815.4
2018-May-14 06:00N 38°28' W 026°42'815.2
2018-May-14 05:30N 38°23' W 026°35'715.0
2018-May-14 05:00N 38°18' W 026°29'714.6
2018-May-14 04:30N 38°12' W 026°22'714.9
2018-May-14 04:00N 38°07' W 026°15'815.1
2018-May-14 03:31N 38°02' W 026°09'815.0
2018-May-14 03:00N 37°56' W 026°02'714.9
2018-May-14 02:30N 37°51' W 025°55'815.4
2018-May-14 02:00N 37°46' W 025°48'714.3
2018-May-14 01:30N 37°44' W 025°39'1 1.3
2018-May-14 01:00N 37°44' W 025°40'0 0.0
2018-May-14 00:30N 37°44' W 025°40'0 0.5
2018-May-14 00:00N 37°44' W 025°39'815.0
2018-May-13 23:30N 37°38' W 025°35'815.8
2018-May-13 23:00N 37°30' W 025°31'815.7
2018-May-13 22:31N 37°23' W 025°27'815.8
2018-May-13 22:01N 37°16' W 025°23'815.9
2018-May-13 21:30N 37°09' W 025°18'815.6
2018-May-13 21:00N 37°02' W 025°14'713.9
2018-May-13 20:30N 36°56' W 025°09'1 1.1
2018-May-13 20:01N 36°57' W 025°09'4 8.5
2018-May-13 19:31N 36°60' W 025°13'714.5
2018-May-13 19:00N 37°06' W 025°17'714.3
2018-May-13 18:30N 37°13' W 025°20'714.5
2018-May-13 18:00N 37°19' W 025°24'714.4
2018-May-13 17:30N 37°26' W 025°28'714.4
2018-May-13 17:00N 37°32' W 025°32'714.7
2018-May-13 16:30N 37°39' W 025°36'612.3
2018-May-13 16:00N 37°44' W 025°40'0 0.1
2018-May-13 15:30N 37°44' W 025°40'  
Track history (hours):
 
Tides and Currents Weather Stations Pressure Air Temp Water Temp Dewpoint Dewpoint Depression Visibility Wind Speed Wind Dir Waves Ship Positions

Aqua Jewel

Last reported at 2018-May-23 15:00 UTC. Time now 2018-May-23 15:11 UTC.
Position N 38°54' W 027°27'.

Length 108 m; draft 3.8 m.

Type: Passenger vessel. MMSI: 239981000.

Date/timePositionNaut miles runAvg speedWind from/ knotsBaromVisibWave heightAir tempDewpointWater temp
2018-May-23 15:00N 38°54' W 027°27'714.5
2018-May-23 14:30N 38°56' W 027°36'714.5
2018-May-23 14:00N 38°59' W 027°45'714.9
2018-May-23 13:30N 39°02' W 027°54'4 7.4
2018-May-23 13:00N 39°03' W 027°58'1 2.3
2018-May-23 12:30N 39°02' W 027°57'713.6
2018-May-23 12:00N 38°56' W 027°59'714.6
2018-May-23 11:30N 38°52' W 028°07'815.1
2018-May-23 11:00N 38°48' W 028°15'510.3
2018-May-23 10:31N 38°44' W 028°19'611.8
2018-May-23 10:00N 38°41' W 028°12'1 2.1
2018-May-23 09:30N 38°40' W 028°13'612.8
2018-May-23 09:00N 38°35' W 028°18'3 6.3
2018-May-23 08:30N 38°32' W 028°19'1 2.6
2018-May-23 08:00N 38°33' W 028°20'714.6
2018-May-23 07:30N 38°35' W 028°29'713.1
2018-May-23 07:00N 38°32' W 028°37'0 0.0
2018-May-23 06:29N 38°32' W 028°37'0 0.0
2018-May-23 05:59N 38°32' W 028°37'0 0.0
2018-May-23 05:26N 38°32' W 028°37'0 0.0
2018-May-23 04:56N 38°32' W 028°37'0 0.0
2018-May-23 04:29N 38°32' W 028°37'0 0.0
2018-May-23 03:59N 38°32' W 028°37'0 0.0
2018-May-23 03:29N 38°32' W 028°37'0 0.0
2018-May-23 02:59N 38°32' W 028°37'0 0.0
2018-May-23 02:29N 38°32' W 028°37'0 0.0
2018-May-23 01:59N 38°32' W 028°37'0 0.0
2018-May-23 01:29N 38°32' W 028°37'0 0.0
2018-May-23 00:56N 38°32' W 028°37'0 0.0
2018-May-23 00:29N 38°32' W 028°37'0 0.0
2018-May-22 23:59N 38°32' W 028°37'0 0.0
2018-May-22 23:29N 38°32' W 028°37'0 0.0
2018-May-22 22:59N 38°32' W 028°37'0 0.0
2018-May-22 22:26N 38°32' W 028°37'0 0.0
2018-May-22 21:59N 38°32' W 028°37'0 0.0
2018-May-22 21:30N 38°32' W 028°37'510.7
2018-May-22 21:00N 38°34' W 028°31'714.1
2018-May-22 20:30N 38°34' W 028°22'3 5.8
2018-May-22 20:00N 38°32' W 028°19'3 5.9
2018-May-22 19:30N 38°35' W 028°18'715.0
2018-May-22 19:00N 38°41' W 028°12'0 0.2
2018-May-22 18:30N 38°41' W 028°12'0 0.0
2018-May-22 18:00N 38°41' W 028°12'0 0.0
2018-May-22 17:30N 38°41' W 028°12'0 0.0
2018-May-22 17:00N 38°41' W 028°12'0 0.2
2018-May-22 16:30N 38°41' W 028°12'713.5
2018-May-22 16:01N 38°35' W 028°17'4 7.7
2018-May-22 15:30N 38°32' W 028°19'3 5.0
2018-May-22 15:00N 38°34' W 028°22'714.6
2018-May-22 14:31N 38°36' W 028°31'612.2
2018-May-22 14:00N 38°32' W 028°37'0 0.0
2018-May-22 13:30N 38°32' W 028°37'0 0.0
2018-May-22 13:00N 38°32' W 028°37'0 0.0
2018-May-22 12:30N 38°32' W 028°37'0 0.0
2018-May-22 12:00N 38°32' W 028°37'0 0.0
2018-May-22 11:30N 38°32' W 028°37'0 0.0
2018-May-22 11:00N 38°32' W 028°37'0 0.0
2018-May-22 10:27N 38°32' W 028°37'0 0.0
2018-May-22 09:51N 38°32' W 028°37'0 0.0
2018-May-22 09:27N 38°32' W 028°37'0 0.0
2018-May-22 09:00N 38°32' W 028°37'0 0.0
2018-May-22 08:30N 38°32' W 028°37'0 0.0
2018-May-22 08:00N 38°32' W 028°37'0 0.0
2018-May-22 07:30N 38°32' W 028°37'0 0.0
2018-May-22 07:00N 38°32' W 028°37'0 0.0
2018-May-22 06:30N 38°32' W 028°37'0 0.0
2018-May-22 06:00N 38°32' W 028°37'0 0.0
2018-May-22 05:30N 38°32' W 028°37'0 0.0
2018-May-22 05:00N 38°32' W 028°37'0 0.0
2018-May-22 04:30N 38°32' W 028°37'0 0.0
2018-May-22 04:00N 38°32' W 028°37'0 0.0
2018-May-22 03:30N 38°32' W 028°37'0 0.0
2018-May-22 03:00N 38°32' W 028°37'0 0.0
2018-May-22 02:30N 38°32' W 028°37'0 0.0
2018-May-22 02:00N 38°32' W 028°37'0 0.0
2018-May-22 01:30N 38°32' W 028°37'0 0.0
2018-May-22 01:00N 38°32' W 028°37'0 0.0
2018-May-22 00:30N 38°32' W 028°37'0 0.0
2018-May-22 00:00N 38°32' W 028°37'0 0.0
2018-May-21 23:30N 38°32' W 028°37'0 0.0
2018-May-21 23:00N 38°32' W 028°37'0 0.0
2018-May-21 22:30N 38°32' W 028°37'0 0.0
2018-May-21 22:00N 38°32' W 028°37'0 0.0
2018-May-21 21:30N 38°32' W 028°37'0 0.0
2018-May-21 21:00N 38°32' W 028°37'0 0.0
2018-May-21 20:30N 38°32' W 028°37'0 0.0
2018-May-21 20:00N 38°32' W 028°37'0 0.0
2018-May-21 19:30N 38°32' W 028°37'0 0.0
2018-May-21 19:00N 38°32' W 028°37'0 0.0
2018-May-21 18:30N 38°32' W 028°37'0 0.0
2018-May-21 18:00N 38°32' W 028°37'0 0.0
2018-May-21 17:30N 38°32' W 028°37'0 0.0
2018-May-21 17:00N 38°32' W 028°37'0 0.0
2018-May-21 16:30N 38°32' W 028°37'0 0.0
2018-May-21 16:00N 38°32' W 028°37'0 0.0
2018-May-21 15:30N 38°32' W 028°37'0 0.0
2018-May-21 15:00N 38°32' W 028°37'0 0.0
2018-May-21 14:30N 38°32' W 028°37'0 0.0
2018-May-21 14:00N 38°32' W 028°37'0 0.0
2018-May-21 13:30N 38°32' W 028°37'0 0.0
2018-May-21 13:00N 38°32' W 028°37'0 0.0
2018-May-21 12:30N 38°32' W 028°37'0 0.0
2018-May-21 11:57N 38°32' W 028°37'0 0.0
2018-May-21 11:30N 38°32' W 028°37'0 0.0
2018-May-21 11:00N 38°32' W 028°37'0 0.0
2018-May-21 10:30N 38°32' W 028°37'0 0.0
2018-May-21 10:00N 38°32' W 028°37'0 0.0
2018-May-21 09:30N 38°32' W 028°37'0 0.0
2018-May-21 09:00N 38°32' W 028°37'0 0.0
2018-May-21 08:30N 38°32' W 028°37'0 0.0
2018-May-21 08:00N 38°32' W 028°37'0 0.0
2018-May-21 07:30N 38°32' W 028°37'0 0.0
2018-May-21 07:00N 38°32' W 028°37'0 0.0
2018-May-21 06:27N 38°32' W 028°37'0 0.0
2018-May-21 06:00N 38°32' W 028°37'0 0.0
2018-May-21 05:30N 38°32' W 028°37'0 0.0
2018-May-21 05:00N 38°32' W 028°37'0 0.0
2018-May-21 04:30N 38°32' W 028°37'0 0.0
2018-May-21 04:00N 38°32' W 028°37'0 0.0
2018-May-21 03:30N 38°32' W 028°37'0 0.0
2018-May-21 03:00N 38°32' W 028°37'0 0.0
2018-May-21 02:30N 38°32' W 028°37'0 0.0
2018-May-21 02:00N 38°32' W 028°37'3 6.4
2018-May-21 01:30N 38°33' W 028°34'713.5
2018-May-21 01:01N 38°35' W 028°25'510.7
2018-May-21 00:30N 38°32' W 028°19'3 6.1
2018-May-21 00:00N 38°35' W 028°18'714.0
2018-May-20 23:31N 38°40' W 028°12'1 1.2
2018-May-20 23:00N 38°40' W 028°12'714.6
2018-May-20 22:30N 38°36' W 028°04'714.9
2018-May-20 22:00N 38°32' W 027°56'815.4
2018-May-20 21:30N 38°29' W 027°47'713.4
2018-May-20 21:00N 38°30' W 027°38'815.2
2018-May-20 20:30N 38°36' W 027°32'612.7
2018-May-20 20:00N 38°38' W 027°24'714.1
2018-May-20 19:30N 38°38' W 027°15'815.1
2018-May-20 18:56N 38°38' W 027°04'511.8
2018-May-20 18:31N 38°43' W 027°03'0 0.8
2018-May-20 18:00N 38°43' W 027°03'0 0.1
2018-May-20 17:30N 38°43' W 027°03'3 5.1
2018-May-20 17:01N 38°45' W 027°02'713.7
2018-May-20 16:30N 38°49' W 027°10'714.0
2018-May-20 16:00N 38°51' W 027°18'713.9
2018-May-20 15:30N 38°54' W 027°26'713.3
2018-May-20 15:00N 38°56' W 027°35'713.5
2018-May-20 14:30N 38°58' W 027°43'713.6
2018-May-20 14:00N 39°01' W 027°51'612.2
2018-May-20 13:31N 39°03' W 027°58'1 1.2
2018-May-20 13:00N 39°03' W 027°57'510.6
2018-May-20 12:30N 38°58' W 028°01'714.0
2018-May-20 12:00N 38°56' W 028°10'713.2
2018-May-20 11:30N 38°51' W 028°15'713.5
2018-May-20 11:00N 38°46' W 028°20'713.9
2018-May-20 10:30N 38°41' W 028°14'2 3.7
2018-May-20 10:00N 38°41' W 028°12'714.5
2018-May-20 09:30N 38°35' W 028°17'3 6.3
2018-May-20 09:00N 38°32' W 028°19'510.6
2018-May-20 08:30N 38°34' W 028°25'714.5
2018-May-20 08:00N 38°33' W 028°34'2 4.7
2018-May-20 07:30N 38°32' W 028°37'0 0.0
2018-May-20 07:00N 38°32' W 028°37'0 0.0
2018-May-20 06:30N 38°32' W 028°37'0 0.0
2018-May-20 05:58N 38°32' W 028°37'0 0.0
2018-May-20 05:28N 38°32' W 028°37'0 0.0
2018-May-20 04:58N 38°32' W 028°37'0 0.0
2018-May-20 04:28N 38°32' W 028°37'0 0.0
2018-May-20 03:58N 38°32' W 028°37'0 0.0
2018-May-20 03:28N 38°32' W 028°37'0 0.0
2018-May-20 02:55N 38°32' W 028°37'0 0.0
2018-May-20 02:28N 38°32' W 028°37'0 0.0
2018-May-20 01:58N 38°32' W 028°37'0 0.0
2018-May-20 01:28N 38°32' W 028°37'0 0.0
2018-May-20 00:58N 38°32' W 028°37'0 0.0
2018-May-20 00:28N 38°32' W 028°37'0 0.0
2018-May-19 23:58N 38°32' W 028°37'0 0.0
2018-May-19 23:28N 38°32' W 028°37'0 0.0
2018-May-19 22:58N 38°32' W 028°37'0 0.0
2018-May-19 22:28N 38°32' W 028°37'0 0.0
2018-May-19 21:58N 38°32' W 028°37'0 0.0
2018-May-19 21:28N 38°32' W 028°37'0 0.0
2018-May-19 20:58N 38°32' W 028°37'0 0.0
2018-May-19 20:28N 38°32' W 028°37'0 0.0
2018-May-19 19:58N 38°32' W 028°37'0 0.0
2018-May-19 19:28N 38°32' W 028°37'0 0.0
2018-May-19 18:58N 38°32' W 028°37'0 0.0
2018-May-19 18:28N 38°32' W 028°37'0 0.0
2018-May-19 17:58N 38°32' W 028°37'0 0.0
2018-May-19 17:28N 38°32' W 028°37'0 0.0
2018-May-19 16:58N 38°32' W 028°37'0 0.0
2018-May-19 16:28N 38°32' W 028°37'0 0.0
2018-May-19 15:58N 38°32' W 028°37'0 0.0
2018-May-19 15:28N 38°32' W 028°37'0 0.0
2018-May-19 14:58N 38°32' W 028°37'0 0.0
2018-May-19 14:28N 38°32' W 028°37'0 0.0
2018-May-19 13:58N 38°32' W 028°37'0 0.0
2018-May-19 13:25N 38°32' W 028°37'0 0.0
2018-May-19 12:58N 38°32' W 028°37'0 0.0
2018-May-19 12:28N 38°32' W 028°37'0 0.0
2018-May-19 11:58N 38°32' W 028°37'0 0.0
2018-May-19 11:28N 38°32' W 028°37'0 0.0
2018-May-19 10:58N 38°32' W 028°37'0 0.0
2018-May-19 10:28N 38°32' W 028°37'0 0.0
2018-May-19 09:58N 38°32' W 028°37'0 0.0
2018-May-19 09:25N 38°32' W 028°37'0 0.0
2018-May-19 08:58N 38°32' W 028°37'0 0.0
2018-May-19 08:28N 38°32' W 028°37'0 0.0
2018-May-19 07:58N 38°32' W 028°37'0 0.0
2018-May-19 07:28N 38°32' W 028°37'0 0.0
2018-May-19 06:58N 38°32' W 028°37'0 0.0
2018-May-19 06:28N 38°32' W 028°37'0 0.0
2018-May-19 05:58N 38°32' W 028°37'0 0.0
2018-May-19 05:28N 38°32' W 028°37'0 0.0
2018-May-19 04:58N 38°32' W 028°37'0 0.0
2018-May-19 04:28N 38°32' W 028°37'0 0.0
2018-May-19 03:58N 38°32' W 028°37'0 0.0
2018-May-19 03:28N 38°32' W 028°37'0 0.0
2018-May-19 02:58N 38°32' W 028°37'0 0.0
2018-May-19 02:28N 38°32' W 028°37'0 0.0
2018-May-19 01:58N 38°32' W 028°37'0 0.0
2018-May-19 01:28N 38°32' W 028°37'0 0.0
2018-May-19 00:58N 38°32' W 028°37'0 0.0
2018-May-19 00:28N 38°32' W 028°37'0 0.0
2018-May-18 23:58N 38°32' W 028°37'0 0.0
2018-May-18 23:28N 38°32' W 028°37'0 0.0
2018-May-18 22:58N 38°32' W 028°37'0 0.0
2018-May-18 22:28N 38°32' W 028°37'0 0.0
2018-May-18 21:58N 38°32' W 028°37'0 0.0
2018-May-18 21:28N 38°32' W 028°37'0 0.0
2018-May-18 20:58N 38°32' W 028°37'0 0.0
2018-May-18 20:28N 38°32' W 028°37'0 0.0
2018-May-18 19:58N 38°32' W 028°37'0 0.0
2018-May-18 19:28N 38°32' W 028°37'0 0.0
2018-May-18 18:58N 38°32' W 028°37'0 0.0
2018-May-18 18:28N 38°32' W 028°37'0 0.0
2018-May-18 17:55N 38°32' W 028°37'0 0.0
2018-May-18 17:28N 38°32' W 028°37'0 0.0
2018-May-18 17:00N 38°32' W 028°37'3 6.1
2018-May-18 16:30N 38°33' W 028°33'611.7
2018-May-18 16:00N 38°34' W 028°26'612.3
2018-May-18 15:30N 38°32' W 028°19'0 0.1
2018-May-18 15:00N 38°32' W 028°19'712.9
2018-May-18 14:30N 38°37' W 028°14'4 7.9
2018-May-18 14:00N 38°41' W 028°12'0 0.4
2018-May-18 13:30N 38°41' W 028°12'612.7
2018-May-18 13:01N 38°44' W 028°19'510.7
2018-May-18 12:30N 38°49' W 028°16'714.8
2018-May-18 12:00N 38°53' W 028°08'714.7
2018-May-18 11:31N 38°58' W 028°01'611.4
2018-May-18 11:00N 39°03' W 027°58'2 3.1
2018-May-18 10:30N 39°02' W 027°56'714.9
2018-May-18 10:00N 38°60' W 027°47'815.1
2018-May-18 09:30N 38°57' W 027°38'815.2
2018-May-18 09:01N 38°55' W 027°29'714.9
2018-May-18 08:30N 38°52' W 027°20'714.9
2018-May-18 08:00N 38°50' W 027°11'714.4
2018-May-18 07:30N 38°46' W 027°03'3 6.1
2018-May-18 07:00N 38°43' W 027°03'2 3.9
2018-May-18 06:30N 38°42' W 027°01'714.9
2018-May-18 06:01N 38°37' W 026°54'714.2
2018-May-18 05:29N 38°32' W 026°47'714.6
2018-May-18 05:00N 38°27' W 026°41'714.9
2018-May-18 04:30N 38°22' W 026°34'815.0
2018-May-18 04:00N 38°17' W 026°27'714.7
2018-May-18 03:30N 38°12' W 026°20'714.4
2018-May-18 03:00N 38°06' W 026°14'815.1
2018-May-18 02:30N 38°01' W 026°07'715.0
2018-May-18 02:00N 37°56' W 026°01'815.8
2018-May-18 01:30N 37°50' W 025°53'815.6
2018-May-18 01:01N 37°45' W 025°46'5 9.6
2018-May-18 00:31N 37°44' W 025°40'0 0.1
2018-May-18 00:01N 37°44' W 025°40'2 4.3
2018-May-17 23:31N 37°43' W 025°38'815.1
2018-May-17 23:01N 37°36' W 025°33'815.2
2018-May-17 22:30N 37°30' W 025°28'815.6
2018-May-17 22:01N 37°22' W 025°25'815.3
2018-May-17 21:30N 37°15' W 025°21'715.0
2018-May-17 21:00N 37°08' W 025°18'714.9
2018-May-17 20:31N 37°01' W 025°14'713.3
2018-May-17 20:00N 36°56' W 025°09'0 0.7
2018-May-17 19:28N 36°57' W 025°09'0 0.0
2018-May-17 18:58N 36°57' W 025°09'0 0.0
2018-May-17 18:29N 36°57' W 025°09'0 0.0
2018-May-17 17:58N 36°57' W 025°09'0 0.0
2018-May-17 17:28N 36°57' W 025°09'0 0.0
2018-May-17 16:59N 36°57' W 025°09'0 0.0
2018-May-17 16:28N 36°57' W 025°09'0 0.0
2018-May-17 15:58N 36°57' W 025°09'0 0.0
2018-May-17 15:25N 36°57' W 025°09'0 0.0
2018-May-17 14:58N 36°57' W 025°09'0 0.0
2018-May-17 14:28N 36°57' W 025°09'0 0.0
2018-May-17 13:59N 36°57' W 025°09'0 0.0
2018-May-17 13:28N 36°57' W 025°09'0 0.0
2018-May-17 12:58N 36°57' W 025°09'0 0.0
2018-May-17 12:28N 36°57' W 025°09'0 0.0
2018-May-17 11:59N 36°57' W 025°09'0 0.0
2018-May-17 11:30N 36°57' W 025°09'3 5.3
2018-May-17 11:00N 36°58' W 025°12'815.4
2018-May-17 10:30N 37°05' W 025°16'815.2
2018-May-17 10:00N 37°12' W 025°20'815.1
2018-May-17 09:31N 37°19' W 025°24'714.8
2018-May-17 09:00N 37°25' W 025°28'714.9
2018-May-17 08:31N 37°32' W 025°32'815.4
2018-May-17 08:01N 37°39' W 025°36'612.0
2018-May-17 07:30N 37°44' W 025°40'0 0.0
2018-May-17 07:00N 37°44' W 025°40'0 0.0
2018-May-17 06:30N 37°44' W 025°40'0 0.0
2018-May-17 05:59N 37°44' W 025°40'0 0.0
2018-May-17 05:29N 37°44' W 025°40'0 0.0
2018-May-17 04:59N 37°44' W 025°40'0 0.0
2018-May-17 04:30N 37°44' W 025°40'0 0.0
2018-May-17 03:59N 37°44' W 025°40'0 0.0
2018-May-17 03:29N 37°44' W 025°40'0 0.0
2018-May-17 02:59N 37°44' W 025°40'0 0.0
2018-May-17 02:30N 37°44' W 025°40'0 0.0
2018-May-17 01:59N 37°44' W 025°40'0 0.0
2018-May-17 01:29N 37°44' W 025°40'0 0.0
2018-May-17 01:00N 37°44' W 025°40'0 0.0
2018-May-17 00:29N 37°44' W 025°40'0 0.0
2018-May-16 23:59N 37°44' W 025°40'0 0.0
2018-May-16 23:31N 37°44' W 025°40'2 3.9
2018-May-16 23:00N 37°44' W 025°42'815.0
2018-May-16 22:30N 37°48' W 025°50'815.2
2018-May-16 22:00N 37°53' W 025°57'714.9
2018-May-16 21:30N 37°59' W 026°04'815.1
2018-May-16 21:00N 38°04' W 026°11'815.5
2018-May-16 20:30N 38°09' W 026°18'815.5
2018-May-16 20:00N 38°15' W 026°25'815.4
2018-May-16 19:30N 38°20' W 026°32'815.3
2018-May-16 19:00N 38°25' W 026°39'815.6
2018-May-16 18:30N 38°31' W 026°46'815.6
2018-May-16 18:00N 38°36' W 026°53'815.3
2018-May-16 17:29N 38°42' W 027°01'2 4.9
2018-May-16 17:00N 38°43' W 027°03'1 2.2
2018-May-16 16:30N 38°44' W 027°03'713.2
2018-May-16 16:00N 38°49' W 027°08'814.8
2018-May-16 15:30N 38°51' W 027°17'714.8
2018-May-16 15:00N 38°54' W 027°26'815.1
2018-May-16 14:30N 38°56' W 027°35'715.0
2018-May-16 14:00N 38°59' W 027°44'815.2
2018-May-16 13:31N 39°02' W 027°53'4 8.3
2018-May-16 13:00N 39°03' W 027°58'0 0.0
2018-May-16 12:30N 39°03' W 027°58'5 9.3
2018-May-16 12:01N 38°59' W 027°58'815.6
2018-May-16 11:30N 38°54' W 028°06'815.3
2018-May-16 11:00N 38°49' W 028°14'713.7
2018-May-16 10:30N 38°44' W 028°20'713.7
2018-May-16 10:00N 38°41' W 028°12'0 0.2
2018-May-16 09:30N 38°41' W 028°12'714.5
2018-May-16 09:00N 38°34' W 028°16'3 6.7
2018-May-16 08:30N 38°32' W 028°19'1 2.4
2018-May-16 08:00N 38°33' W 028°20'815.1
2018-May-16 07:30N 38°35' W 028°29'713.3
2018-May-16 07:00N 38°32' W 028°37'0 0.1
2018-May-16 06:30N 38°32' W 028°37'0 0.0
2018-May-16 05:58N 38°32' W 028°37'0 0.0
2018-May-16 05:25N 38°32' W 028°37'0 0.0
2018-May-16 04:58N 38°32' W 028°37'0 0.0
2018-May-16 04:28N 38°32' W 028°37'0 0.0
2018-May-16 03:58N 38°32' W 028°37'0 0.0
2018-May-16 03:22N 38°32' W 028°37'0 0.0
2018-May-16 02:55N 38°32' W 028°37'0 0.0
2018-May-16 02:28N 38°32' W 028°37'0 0.0
2018-May-16 01:55N 38°32' W 028°37'0 0.0
2018-May-16 01:25N 38°32' W 028°37'0 0.0
2018-May-16 00:58N 38°32' W 028°37'0 0.0
2018-May-16 00:28N 38°32' W 028°37'0 0.0
2018-May-15 23:58N 38°32' W 028°37'0 0.0
2018-May-15 23:28N 38°32' W 028°37'0 0.0
2018-May-15 22:55N 38°32' W 028°37'0 0.0
2018-May-15 22:28N 38°32' W 028°37'0 0.0
2018-May-15 21:58N 38°32' W 028°37'0 0.0
2018-May-15 21:28N 38°32' W 028°37'0 0.0
2018-May-15 20:58N 38°32' W 028°37'0 0.0
2018-May-15 20:28N 38°32' W 028°37'0 0.0
2018-May-15 19:58N 38°32' W 028°37'0 0.0
2018-May-15 19:28N 38°32' W 028°37'0 0.0
2018-May-15 18:58N 38°32' W 028°37'0 0.0
2018-May-15 18:28N 38°32' W 028°37'0 0.0
2018-May-15 17:58N 38°32' W 028°37'0 0.0
2018-May-15 17:25N 38°32' W 028°37'0 0.0
2018-May-15 16:58N 38°32' W 028°37'0 0.0
2018-May-15 16:28N 38°32' W 028°37'0 0.0
2018-May-15 15:58N 38°32' W 028°37'0 0.0
2018-May-15 15:28N 38°32' W 028°37'0 0.0
2018-May-15 14:58N 38°32' W 028°37'0 0.0
2018-May-15 14:28N 38°32' W 028°37'0 0.0
2018-May-15 13:58N 38°32' W 028°37'0 0.0
2018-May-15 13:28N 38°32' W 028°37'0 0.0
2018-May-15 12:58N 38°32' W 028°37'0 0.0
2018-May-15 12:28N 38°32' W 028°37'0 0.0
2018-May-15 11:58N 38°32' W 028°37'0 0.0
2018-May-15 11:28N 38°32' W 028°37'0 0.0
2018-May-15 10:58N 38°32' W 028°37'0 0.0
2018-May-15 10:28N 38°32' W 028°37'0 0.0
2018-May-15 09:58N 38°32' W 028°37'0 0.0
2018-May-15 09:28N 38°32' W 028°37'0 0.0
2018-May-15 08:58N 38°32' W 028°37'0 0.0
2018-May-15 08:28N 38°32' W 028°37'0 0.0
2018-May-15 07:58N 38°32' W 028°37'0 0.0
2018-May-15 07:28N 38°32' W 028°37'0 0.0
2018-May-15 06:58N 38°32' W 028°37'0 0.0
2018-May-15 06:28N 38°32' W 028°37'0 0.0
2018-May-15 05:58N 38°32' W 028°37'0 0.0
2018-May-15 05:28N 38°32' W 028°37'0 0.0
2018-May-15 04:58N 38°32' W 028°37'0 0.0
2018-May-15 04:28N 38°32' W 028°37'0 0.0
2018-May-15 03:58N 38°32' W 028°37'0 0.0
2018-May-15 03:28N 38°32' W 028°37'0 0.0
2018-May-15 02:58N 38°32' W 028°37'0 0.0
2018-May-15 02:28N 38°32' W 028°37'0 0.0
2018-May-15 01:58N 38°32' W 028°37'0 0.0
2018-May-15 01:28N 38°32' W 028°37'0 0.0
2018-May-15 00:58N 38°32' W 028°37'0 0.0
2018-May-15 00:28N 38°32' W 028°37'0 0.0
2018-May-14 23:58N 38°32' W 028°37'0 0.0
2018-May-14 23:28N 38°32' W 028°37'0 0.0
2018-May-14 22:58N 38°32' W 028°37'0 0.0
2018-May-14 22:28N 38°32' W 028°37'0 0.0
2018-May-14 21:52N 38°32' W 028°37'0 0.0
2018-May-14 21:28N 38°32' W 028°37'0 0.0
2018-May-14 21:00N 38°32' W 028°37'0 0.0
2018-May-14 20:30N 38°32' W 028°37'0 0.0
2018-May-14 20:00N 38°32' W 028°37'0 0.0
2018-May-14 19:30N 38°32' W 028°37'0 0.0
2018-May-14 19:00N 38°32' W 028°37'0 0.0
2018-May-14 18:27N 38°32' W 028°37'0 0.0
2018-May-14 18:00N 38°32' W 028°37'0 0.0
2018-May-14 17:27N 38°32' W 028°37'0 0.0
2018-May-14 17:00N 38°32' W 028°37'5 9.5
2018-May-14 16:30N 38°34' W 028°32'714.4
2018-May-14 16:00N 38°34' W 028°22'3 6.3
2018-May-14 15:30N 38°32' W 028°19'4 7.3
2018-May-14 15:00N 38°35' W 028°17'713.5
2018-May-14 14:30N 38°41' W 028°12'2 4.6
2018-May-14 14:00N 38°41' W 028°15'713.5
2018-May-14 13:30N 38°47' W 028°20'815.1
2018-May-14 13:00N 38°51' W 028°12'815.0
2018-May-14 12:30N 38°56' W 028°04'814.9
2018-May-14 12:00N 39°00' W 027°57'3 5.8
2018-May-14 11:30N 39°03' W 027°58'611.6
2018-May-14 11:00N 39°01' W 027°51'815.5
2018-May-14 10:30N 38°58' W 027°42'815.7
2018-May-14 10:00N 38°56' W 027°32'816.1
2018-May-14 09:30N 38°53' W 027°23'815.6
2018-May-14 09:00N 38°50' W 027°13'815.4
2018-May-14 08:29N 38°47' W 027°04'5 9.9
2018-May-14 08:00N 38°43' W 027°03'0 0.7
2018-May-14 07:30N 38°43' W 027°03'713.8
2018-May-14 07:00N 38°39' W 026°56'815.2
2018-May-14 06:30N 38°34' W 026°49'815.4
2018-May-14 06:00N 38°28' W 026°42'815.2
2018-May-14 05:30N 38°23' W 026°35'715.0
2018-May-14 05:00N 38°18' W 026°29'714.6
2018-May-14 04:30N 38°12' W 026°22'714.9
2018-May-14 04:00N 38°07' W 026°15'815.1
2018-May-14 03:31N 38°02' W 026°09'815.0
2018-May-14 03:00N 37°56' W 026°02'714.9
2018-May-14 02:30N 37°51' W 025°55'815.4
2018-May-14 02:00N 37°46' W 025°48'714.3
2018-May-14 01:30N 37°44' W 025°39'1 1.3
2018-May-14 01:00N 37°44' W 025°40'0 0.0
2018-May-14 00:30N 37°44' W 025°40'0 0.5
2018-May-14 00:00N 37°44' W 025°39'815.0
2018-May-13 23:30N 37°38' W 025°35'815.8
2018-May-13 23:00N 37°30' W 025°31'815.7
2018-May-13 22:31N 37°23' W 025°27'815.8
2018-May-13 22:01N 37°16' W 025°23'815.9
2018-May-13 21:30N 37°09' W 025°18'815.6
2018-May-13 21:00N 37°02' W 025°14'713.9
2018-May-13 20:30N 36°56' W 025°09'1 1.1
2018-May-13 20:01N 36°57' W 025°09'4 8.5
2018-May-13 19:31N 36°60' W 025°13'714.5
2018-May-13 19:00N 37°06' W 025°17'714.3
2018-May-13 18:30N 37°13' W 025°20'714.5
2018-May-13 18:00N 37°19' W 025°24'714.4
2018-May-13 17:30N 37°26' W 025°28'714.4
2018-May-13 17:00N 37°32' W 025°32'714.7
2018-May-13 16:30N 37°39' W 025°36'612.3
2018-May-13 16:00N 37°44' W 025°40'0 0.1
2018-May-13 15:30N 37°44' W 025°40'  

Dump ship's entire track history